createdAt,value
2018-12-04T00:00:57.338Z,11.18
2018-12-04T00:04:00.732Z,11.10
2018-12-04T00:07:04.310Z,11.14
2018-12-04T00:10:08.607Z,11.12
2018-12-04T00:13:12.175Z,11.06
2018-12-04T00:16:15.552Z,11.04
2018-12-04T00:19:18.964Z,11.02
2018-12-04T00:22:22.437Z,11.06
2018-12-04T00:25:25.964Z,11.06
2018-12-04T00:28:29.421Z,11.08
2018-12-04T00:31:32.970Z,11.11
2018-12-04T00:34:36.531Z,11.06
2018-12-04T00:37:40.061Z,11.01
2018-12-04T00:40:43.560Z,11.01
2018-12-04T00:43:47.054Z,11.01
2018-12-04T00:46:50.528Z,10.97
2018-12-04T00:49:54.127Z,10.95
2018-12-04T00:52:57.831Z,10.98
2018-12-04T00:56:01.444Z,11.00
2018-12-04T00:59:05.171Z,11.00
2018-12-04T01:02:08.765Z,11.02
2018-12-04T01:05:12.373Z,11.01
2018-12-04T01:08:16.098Z,11.00
2018-12-04T01:11:19.731Z,10.96
2018-12-04T01:14:23.324Z,10.98
2018-12-04T01:17:26.917Z,11.02
2018-12-04T01:20:31.569Z,10.99
2018-12-04T01:23:35.231Z,10.99
2018-12-04T01:26:38.862Z,10.97
2018-12-04T01:29:42.502Z,10.99
2018-12-04T01:32:46.141Z,10.95
2018-12-04T01:35:49.703Z,10.97
2018-12-04T01:38:54.276Z,10.99
2018-12-04T01:41:57.930Z,10.98
2018-12-04T01:45:01.593Z,10.99
2018-12-04T01:48:05.230Z,10.97
2018-12-04T01:51:09.005Z,11.06
2018-12-04T01:54:12.707Z,11.09
2018-12-04T01:57:16.431Z,11.09
2018-12-04T02:00:20.086Z,11.11
2018-12-04T02:03:23.620Z,11.13
2018-12-04T02:06:27.033Z,11.13
2018-12-04T02:09:30.735Z,11.12
2018-12-04T02:12:34.489Z,11.14
2018-12-04T02:15:38.284Z,11.16
2018-12-04T02:18:41.913Z,11.17
2018-12-04T02:21:45.509Z,11.10
2018-12-04T02:24:49.127Z,11.10
2018-12-04T02:27:52.688Z,11.06
2018-12-04T02:30:57.130Z,11.05
2018-12-04T02:34:00.987Z,11.02
2018-12-04T02:37:04.603Z,10.97
2018-12-04T02:40:08.167Z,10.95
2018-12-04T02:43:11.733Z,10.95
2018-12-04T02:46:15.343Z,11.02
2018-12-04T02:49:18.993Z,10.96
2018-12-04T02:52:22.544Z,10.97
2018-12-04T02:55:26.167Z,11.01
2018-12-04T02:58:29.795Z,11.00
2018-12-04T03:01:33.386Z,11.01
2018-12-04T03:04:36.968Z,11.01
2018-12-04T03:07:40.624Z,10.99
2018-12-04T03:10:44.199Z,11.03
2018-12-04T03:13:47.792Z,11.00
2018-12-04T03:16:51.524Z,10.98
2018-12-04T03:19:54.929Z,10.95
2018-12-04T03:22:59.476Z,10.97
2018-12-04T03:26:03.069Z,10.92
2018-12-04T03:29:06.713Z,10.96
2018-12-04T03:32:10.501Z,11.01
2018-12-04T03:35:14.088Z,10.98
2018-12-04T03:38:17.631Z,10.91
2018-12-04T03:41:21.218Z,10.93
2018-12-04T03:44:24.768Z,10.87
2018-12-04T03:47:28.372Z,10.85
2018-12-04T03:50:31.917Z,10.81
2018-12-04T03:53:35.528Z,10.79
2018-12-04T03:56:39.031Z,10.74
2018-12-04T03:59:42.584Z,10.75
2018-12-04T04:02:46.151Z,10.78
2018-12-04T04:05:49.657Z,10.77
2018-12-04T04:08:53.156Z,10.68
2018-12-04T04:11:56.743Z,10.62
2018-12-04T04:15:00.279Z,10.70
2018-12-04T04:18:03.790Z,10.63
2018-12-04T04:21:07.352Z,10.59
2018-12-04T04:24:10.869Z,10.62
2018-12-04T04:27:14.460Z,10.61
2018-12-04T04:30:18.014Z,10.59
2018-12-04T04:33:21.585Z,10.62
2018-12-04T04:36:25.222Z,10.55
2018-12-04T04:39:28.782Z,10.60
2018-12-04T04:42:32.364Z,10.52
2018-12-04T04:45:35.945Z,10.48
2018-12-04T04:48:39.464Z,10.48
2018-12-04T04:51:43.063Z,10.50
2018-12-04T04:54:46.567Z,10.51
2018-12-04T04:57:50.376Z,10.56
2018-12-04T05:00:54.018Z,10.55
2018-12-04T05:03:57.644Z,10.48
2018-12-04T05:07:01.142Z,10.51
2018-12-04T05:10:05.728Z,10.53
2018-12-04T05:13:09.379Z,10.54
2018-12-04T05:16:12.859Z,10.55
2018-12-04T05:19:16.364Z,10.55
2018-12-04T05:22:20.963Z,10.55
2018-12-04T05:25:24.485Z,10.56
2018-12-04T05:28:28.042Z,10.52
2018-12-04T05:31:31.647Z,10.49
2018-12-04T05:34:35.162Z,10.42
2018-12-04T05:37:38.750Z,10.41
2018-12-04T05:40:42.319Z,10.41
2018-12-04T05:43:45.811Z,10.43
2018-12-04T05:46:49.493Z,10.45
2018-12-04T05:49:53.124Z,10.52
2018-12-04T05:53:07.831Z,10.49
2018-12-04T05:56:13.029Z,10.41
2018-12-04T05:59:16.605Z,10.45
2018-12-04T06:02:20.438Z,10.38
2018-12-04T06:05:24.008Z,10.39
2018-12-04T06:08:27.591Z,10.44
2018-12-04T06:11:31.339Z,10.47
2018-12-04T06:14:34.815Z,10.47
2018-12-04T06:17:38.392Z,10.41
2018-12-04T06:20:41.993Z,10.35
2018-12-04T06:23:45.434Z,10.38
2018-12-04T06:26:48.944Z,10.36
2018-12-04T06:29:52.580Z,10.33
2018-12-04T06:32:56.046Z,10.31
2018-12-04T06:35:59.501Z,10.27
2018-12-04T06:39:03.043Z,10.26
2018-12-04T06:42:06.548Z,10.25
2018-12-04T06:45:10.135Z,10.22
2018-12-04T06:48:13.645Z,10.19
2018-12-04T06:51:17.163Z,10.10
2018-12-04T06:54:20.623Z,10.08
2018-12-04T06:57:24.373Z,10.06
2018-12-04T07:00:28.017Z,9.98
2018-12-04T07:03:31.715Z,10.01
2018-12-04T07:06:35.246Z,10.05
2018-12-04T07:09:40.065Z,10.02
2018-12-04T07:12:44.546Z,9.94
2018-12-04T07:15:49.185Z,9.90
2018-12-04T07:18:52.825Z,9.81
2018-12-04T07:21:56.344Z,9.84
2018-12-04T07:25:00.001Z,9.77
2018-12-04T07:28:03.963Z,9.79
2018-12-04T07:31:07.642Z,9.75
2018-12-04T07:34:11.102Z,9.79
2018-12-04T07:37:14.648Z,9.83
2018-12-04T07:40:18.330Z,9.88
2018-12-04T07:43:21.905Z,9.86
2018-12-04T07:46:26.504Z,9.90
2018-12-04T07:49:29.941Z,9.90
2018-12-04T07:52:33.480Z,9.87
2018-12-04T07:55:37.139Z,9.87
2018-12-04T07:58:40.702Z,9.87
2018-12-04T08:01:44.403Z,9.94
2018-12-04T08:04:47.906Z,9.97
2018-12-04T08:07:51.429Z,9.97
2018-12-04T08:10:54.903Z,10.03
2018-12-04T08:13:58.581Z,10.09
2018-12-04T08:17:02.083Z,10.06
2018-12-04T08:20:07.020Z,10.10
2018-12-04T08:23:10.628Z,10.09
2018-12-04T08:26:14.470Z,10.06
2018-12-04T08:29:17.936Z,10.04
2018-12-04T08:32:22.629Z,10.02
2018-12-04T08:35:26.144Z,10.08
2018-12-04T08:38:29.612Z,10.14
2018-12-04T08:41:33.180Z,10.22
2018-12-04T08:44:36.789Z,10.30
2018-12-04T08:47:40.296Z,10.29
2018-12-04T08:50:43.721Z,10.32
2018-12-04T08:53:47.199Z,10.30
2018-12-04T08:56:50.816Z,10.25
2018-12-04T08:59:54.600Z,10.17
2018-12-04T09:02:58.466Z,10.11
2018-12-04T09:06:02.142Z,10.13
2018-12-04T09:09:09.520Z,10.19
2018-12-04T09:12:14.182Z,10.18
2018-12-04T09:15:17.624Z,10.17
2018-12-04T09:18:21.263Z,10.17
2018-12-04T09:21:24.825Z,10.13
2018-12-04T09:24:30.886Z,10.08
2018-12-04T09:27:32.031Z,9.98
2018-12-04T09:30:35.668Z,10.00
2018-12-04T09:33:39.213Z,9.91
2018-12-04T09:36:42.716Z,9.82
2018-12-04T09:39:47.275Z,9.74
2018-12-04T09:42:50.774Z,9.66
2018-12-04T09:45:54.347Z,9.61
2018-12-04T09:48:58.107Z,9.57
2018-12-04T09:52:02.172Z,9.61
2018-12-04T09:55:06.064Z,9.71
2018-12-04T09:58:09.621Z,9.82
2018-12-04T10:01:13.155Z,9.89
2018-12-04T10:04:16.612Z,9.95
2018-12-04T10:07:20.260Z,9.88
2018-12-04T10:10:23.722Z,9.83
2018-12-04T10:13:28.237Z,9.90
2018-12-04T10:16:31.720Z,10.00
2018-12-04T10:19:35.337Z,10.20
2018-12-04T10:22:38.944Z,10.24
2018-12-04T10:25:47.701Z,10.12
2018-12-04T10:28:51.291Z,10.12
2018-12-04T10:31:56.069Z,10.12
2018-12-04T10:34:58.833Z,9.99
2018-12-04T10:38:02.478Z,9.95
2018-12-04T10:41:06.125Z,9.99
2018-12-04T10:44:09.939Z,10.02
2018-12-04T10:47:13.674Z,9.86
2018-12-04T10:50:17.331Z,9.56
2018-12-04T10:53:20.954Z,9.47
2018-12-04T10:56:25.516Z,9.20
2018-12-04T10:59:29.114Z,9.18
2018-12-04T11:02:36.874Z,9.08
2018-12-04T11:05:41.459Z,9.07
2018-12-04T11:08:44.914Z,9.02
2018-12-04T11:11:48.769Z,8.93
2018-12-04T11:14:52.375Z,8.93
2018-12-04T11:17:55.961Z,8.96
2018-12-04T11:20:59.723Z,8.97
2018-12-04T11:24:03.243Z,8.84
2018-12-04T11:27:06.783Z,8.76
2018-12-04T11:30:10.601Z,8.78
2018-12-04T11:33:14.577Z,8.78
2018-12-04T11:36:18.288Z,8.82
2018-12-04T11:39:21.818Z,8.94
2018-12-04T11:42:25.405Z,8.93
2018-12-04T11:45:29.005Z,9.00
2018-12-04T11:48:32.505Z,9.14
2018-12-04T11:51:36.048Z,9.03
2018-12-04T11:54:40.149Z,9.08
2018-12-04T11:57:43.764Z,9.08
2018-12-04T12:00:47.406Z,9.00
2018-12-04T12:03:51.165Z,9.00
2018-12-04T12:06:54.771Z,8.95
2018-12-04T12:09:58.389Z,8.90
2018-12-04T12:13:02.613Z,8.96
2018-12-04T12:16:06.130Z,8.99
2018-12-04T12:19:09.787Z,8.91
2018-12-04T12:22:13.298Z,8.93
2018-12-04T12:25:16.814Z,8.85
2018-12-04T12:28:20.611Z,8.87
2018-12-04T12:31:24.451Z,9.09
2018-12-04T12:34:27.990Z,9.30
2018-12-04T12:37:31.551Z,9.16
2018-12-04T12:40:35.226Z,8.99
2018-12-04T12:43:38.683Z,8.95
2018-12-04T12:46:42.267Z,8.80
2018-12-04T12:49:45.760Z,8.77
2018-12-04T12:52:49.266Z,8.80
2018-12-04T12:55:52.855Z,8.94
2018-12-04T12:58:56.456Z,9.17
2018-12-04T13:01:59.913Z,9.18
2018-12-04T13:05:03.537Z,9.39
2018-12-04T13:08:07.102Z,9.63
2018-12-04T13:11:10.861Z,9.86
2018-12-04T13:14:14.350Z,9.99
2018-12-04T13:17:17.869Z,10.10
2018-12-04T13:20:21.476Z,10.10
2018-12-04T13:23:25.130Z,10.14
2018-12-04T13:26:28.772Z,10.19
2018-12-04T13:29:32.443Z,10.17
2018-12-04T13:32:36.368Z,10.23
2018-12-04T13:35:39.841Z,10.10
2018-12-04T13:38:43.266Z,10.08
2018-12-04T13:41:46.910Z,10.13
2018-12-04T13:44:50.546Z,10.02
2018-12-04T13:47:54.048Z,9.96
2018-12-04T13:50:57.891Z,10.01
2018-12-04T13:54:02.467Z,10.02
2018-12-04T13:57:06.289Z,10.28
2018-12-04T14:00:10.084Z,10.33
2018-12-04T14:03:13.685Z,10.39
2018-12-04T14:06:17.186Z,10.28
2018-12-04T14:09:21.283Z,10.24
2018-12-04T14:12:24.879Z,10.07
2018-12-04T14:15:28.479Z,10.01
2018-12-04T14:18:32.196Z,9.90
2018-12-04T14:21:36.844Z,9.90
2018-12-04T14:24:41.340Z,9.83
2018-12-04T14:27:49.224Z,9.82
2018-12-04T14:30:49.400Z,9.79
2018-12-04T14:33:54.036Z,9.78
2018-12-04T14:36:57.573Z,9.78
2018-12-04T14:40:01.189Z,9.75
2018-12-04T14:43:05.867Z,9.75
2018-12-04T14:46:09.589Z,9.74
2018-12-04T14:49:13.221Z,9.70
2018-12-04T14:52:16.901Z,9.62
2018-12-04T14:55:20.938Z,9.56
2018-12-04T14:58:24.560Z,9.56
2018-12-04T15:01:28.351Z,9.51
2018-12-04T15:04:32.236Z,9.48
2018-12-04T15:07:35.962Z,9.45
2018-12-04T15:10:39.922Z,9.43
2018-12-04T15:13:43.450Z,9.41
2018-12-04T15:16:47.019Z,9.39
2018-12-04T15:19:50.579Z,9.35
2018-12-04T15:22:54.263Z,9.25
2018-12-04T15:25:58.961Z,9.25
2018-12-04T15:29:02.581Z,9.24
2018-12-04T15:32:06.417Z,9.13
2018-12-04T15:35:09.989Z,9.20
2018-12-04T15:38:13.629Z,9.40
2018-12-04T15:41:17.175Z,9.56
2018-12-04T15:44:20.789Z,9.62
2018-12-04T15:47:25.676Z,9.66
2018-12-04T15:50:30.190Z,9.74
2018-12-04T15:53:33.682Z,9.74
2018-12-04T15:56:37.249Z,9.75
2018-12-04T15:59:40.859Z,9.72
2018-12-04T16:02:45.553Z,9.74
2018-12-04T16:05:48.979Z,9.72
2018-12-04T16:08:52.490Z,9.68
2018-12-04T16:11:56.220Z,9.63
2018-12-04T16:14:59.815Z,9.54
2018-12-04T16:18:03.658Z,9.45
2018-12-04T16:21:08.070Z,9.42
2018-12-04T16:24:11.906Z,9.37
2018-12-04T16:27:15.504Z,9.34
2018-12-04T16:30:19.033Z,9.27
2018-12-04T16:33:22.416Z,9.25
2018-12-04T16:36:26.275Z,9.20
2018-12-04T16:39:29.895Z,9.11
2018-12-04T16:42:33.520Z,8.99
2018-12-04T16:45:36.991Z,9.04
2018-12-04T16:48:40.563Z,9.10
2018-12-04T16:51:44.141Z,9.18
2018-12-04T16:54:48.510Z,9.22
2018-12-04T16:57:52.204Z,9.22
2018-12-04T17:00:55.896Z,9.16
2018-12-04T17:03:59.571Z,9.18
2018-12-04T17:07:03.432Z,9.19
2018-12-04T17:10:08.287Z,9.25
2018-12-04T17:13:11.907Z,9.07
2018-12-04T17:16:15.647Z,8.99
2018-12-04T17:19:19.347Z,9.01
2018-12-04T17:22:23.013Z,9.06
2018-12-04T17:25:26.675Z,9.08
2018-12-04T17:28:30.561Z,9.07
2018-12-04T17:31:34.171Z,9.00
2018-12-04T17:34:38.077Z,8.84
2018-12-04T17:37:41.652Z,8.81
2018-12-04T17:40:45.223Z,8.80
2018-12-04T17:43:48.952Z,8.75
2018-12-04T17:46:52.712Z,8.70
2018-12-04T17:49:56.409Z,8.53
2018-12-04T17:53:00.309Z,8.40
2018-12-04T17:56:04.262Z,8.38
2018-12-04T17:59:08.051Z,8.38
2018-12-04T18:02:13.349Z,8.17
2018-12-04T18:05:18.018Z,8.14
2018-12-04T18:08:21.780Z,8.12
2018-12-04T18:11:25.329Z,8.00
2018-12-04T18:14:28.866Z,7.92
2018-12-04T18:17:32.373Z,7.90
2018-12-04T18:20:36.083Z,7.76
2018-12-04T18:23:39.653Z,7.54
2018-12-04T18:26:43.328Z,7.50
2018-12-04T18:29:46.856Z,7.44
2018-12-04T18:32:50.453Z,7.42
2018-12-04T18:35:54.192Z,7.31
2018-12-04T18:38:57.760Z,7.29
2018-12-04T18:42:01.305Z,7.26
2018-12-04T18:45:05.410Z,7.31
2018-12-04T18:48:08.989Z,7.36
2018-12-04T18:51:12.601Z,7.37
2018-12-04T18:54:16.167Z,7.35
2018-12-04T18:57:19.804Z,7.20
2018-12-04T19:00:25.355Z,7.09
2018-12-04T19:03:28.958Z,7.02
2018-12-04T19:06:32.574Z,7.05
2018-12-04T19:09:37.466Z,7.09
2018-12-04T19:12:41.421Z,7.10
2018-12-04T19:15:45.049Z,7.01
2018-12-04T19:18:48.854Z,6.96
2018-12-04T19:21:52.600Z,6.98
2018-12-04T19:24:56.354Z,6.94
2018-12-04T19:28:00.459Z,6.88
2018-12-04T19:31:04.114Z,6.89
2018-12-04T19:34:07.906Z,6.78
2018-12-04T19:37:11.592Z,6.78
2018-12-04T19:40:20.587Z,6.71
2018-12-04T19:43:24.286Z,6.66
2018-12-04T19:46:27.975Z,6.61
2018-12-04T19:49:31.633Z,6.66
2018-12-04T19:52:35.641Z,6.61
2018-12-04T19:55:39.175Z,6.52
2018-12-04T19:58:42.917Z,6.51
2018-12-04T20:01:46.668Z,6.60
2018-12-04T20:04:50.144Z,6.53
2018-12-04T20:07:53.840Z,6.50
2018-12-04T20:10:57.450Z,6.41
2018-12-04T20:14:01.125Z,6.25
2018-12-04T20:17:04.865Z,6.21
2018-12-04T20:20:08.483Z,6.18
2018-12-04T20:23:12.163Z,6.10
2018-12-04T20:26:16.908Z,6.14
2018-12-04T20:29:21.501Z,6.01
2018-12-04T20:32:25.199Z,5.94
2018-12-04T20:35:28.845Z,5.94
2018-12-04T20:38:32.800Z,5.97
2018-12-04T20:41:36.232Z,5.85
2018-12-04T20:44:39.929Z,5.58
2018-12-04T20:47:43.757Z,5.49
2018-12-04T20:50:47.387Z,5.29
2018-12-04T20:53:50.945Z,5.08
2018-12-04T20:56:54.585Z,4.99
2018-12-04T20:59:58.186Z,4.99
2018-12-04T21:03:01.808Z,5.06
2018-12-04T21:06:05.557Z,5.10
2018-12-04T21:09:09.278Z,5.13
2018-12-04T21:12:12.840Z,5.07
2018-12-04T21:15:16.555Z,4.98
2018-12-04T21:18:20.089Z,4.92
2018-12-04T21:21:23.636Z,4.91
2018-12-04T21:24:27.222Z,4.94
2018-12-04T21:27:36.039Z,4.90
2018-12-04T21:30:44.924Z,4.93
2018-12-04T21:33:53.785Z,4.93
2018-12-04T21:37:02.575Z,4.98
2018-12-04T21:40:11.464Z,5.02
2018-12-04T21:43:20.395Z,5.14
2018-12-04T21:46:29.185Z,5.19
2018-12-04T21:49:32.671Z,5.15
2018-12-04T21:52:36.366Z,5.11
2018-12-04T21:55:40.037Z,5.04
2018-12-04T21:58:43.614Z,5.11
2018-12-04T22:01:48.392Z,5.25
2018-12-04T22:04:52.032Z,5.33
2018-12-04T22:07:55.639Z,5.35
2018-12-04T22:10:59.329Z,5.37
2018-12-04T22:14:02.852Z,5.38
2018-12-04T22:17:06.348Z,5.40
2018-12-04T22:20:10.012Z,5.48
2018-12-04T22:23:13.660Z,5.49
2018-12-04T22:26:17.185Z,5.51
2018-12-04T22:29:20.618Z,5.50
2018-12-04T22:32:24.289Z,5.49
2018-12-04T22:35:27.970Z,5.43
2018-12-04T22:38:32.647Z,5.41
2018-12-04T22:41:36.194Z,5.39
2018-12-04T22:44:39.808Z,5.43
2018-12-04T22:47:43.648Z,5.48
2018-12-04T22:50:47.309Z,5.40
2018-12-04T22:53:50.873Z,5.35
2018-12-04T22:56:54.421Z,5.41
2018-12-04T22:59:58.001Z,5.47
2018-12-04T23:03:01.595Z,5.53
2018-12-04T23:06:05.237Z,5.59
2018-12-04T23:09:10.516Z,5.67
2018-12-04T23:12:14.303Z,5.64
2018-12-04T23:15:17.858Z,5.57
2018-12-04T23:18:21.548Z,5.53
2018-12-04T23:21:25.050Z,5.52
2018-12-04T23:24:28.573Z,5.52
2018-12-04T23:27:32.048Z,5.55
2018-12-04T23:30:35.606Z,5.56
2018-12-04T23:33:39.201Z,5.64
2018-12-04T23:36:42.841Z,5.66
2018-12-04T23:39:46.531Z,5.69
2018-12-04T23:42:50.240Z,5.77
2018-12-04T23:45:53.812Z,5.77
2018-12-04T23:48:57.486Z,5.71
2018-12-04T23:52:01.064Z,5.71
2018-12-04T23:55:04.636Z,5.76
2018-12-04T23:58:08.157Z,5.81
